sensor_id;sensor_type;location;lat;lon;timestamp;temperature;humidity
14993;DHT22;7592;51.088;13.732;2023-03-03T00:02:23;1.90;99.90
14993;DHT22;7592;51.088;13.732;2023-03-03T00:07:16;1.90;99.90
14993;DHT22;7592;51.088;13.732;2023-03-03T00:17:22;2.20;99.90
14993;DHT22;7592;51.088;13.732;2023-03-03T00:22:30;2.10;99.90
14993;DHT22;7592;51.088;13.732;2023-03-03T00:27:29;2.00;99.90
14993;DHT22;7592;51.088;13.732;2023-03-03T00:42:16;1.90;99.90
14993;DHT22;7592;51.088;13.732;2023-03-03T00:47:27;1.80;99.90
14993;DHT22;7592;51.088;13.732;2023-03-03T00:52:26;1.80;99.90
14993;DHT22;7592;51.088;13.732;2023-03-03T00:57:20;1.80;99.90
14993;DHT22;7592;51.088;13.732;2023-03-03T01:02:14;1.70;99.90
14993;DHT22;7592;51.088;13.732;2023-03-03T01:07:07;1.70;99.90
14993;DHT22;7592;51.088;13.732;2023-03-03T01:11:59;1.70;99.90
14993;DHT22;7592;51.088;13.732;2023-03-03T01:16:52;1.70;99.90
14993;DHT22;7592;51.088;13.732;2023-03-03T01:21:44;1.80;99.90
14993;DHT22;7592;51.088;13.732;2023-03-03T01:26:36;1.80;99.90
14993;DHT22;7592;51.088;13.732;2023-03-03T01:31:29;1.80;99.90
14993;DHT22;7592;51.088;13.732;2023-03-03T01:36:25;1.70;99.90
14993;DHT22;7592;51.088;13.732;2023-03-03T01:41:18;1.60;99.90
14993;DHT22;7592;51.088;13.732;2023-03-03T01:51:19;1.60;99.90
14993;DHT22;7592;51.088;13.732;2023-03-03T01:56:13;1.60;99.90
14993;DHT22;7592;51.088;13.732;2023-03-03T02:01:09;1.60;99.90
14993;DHT22;7592;51.088;13.732;2023-03-03T02:06:30;1.60;99.90
14993;DHT22;7592;51.088;13.732;2023-03-03T02:12:22;1.60;99.90
14993;DHT22;7592;51.088;13.732;2023-03-03T02:17:17;1.40;99.90
14993;DHT22;7592;51.088;13.732;2023-03-03T02:22:10;1.20;99.90
14993;DHT22;7592;51.088;13.732;2023-03-03T02:27:10;1.20;99.90
14993;DHT22;7592;51.088;13.732;2023-03-03T02:32:07;1.20;99.90
14993;DHT22;7592;51.088;13.732;2023-03-03T02:36:59;1.10;99.90
14993;DHT22;7592;51.088;13.732;2023-03-03T02:42:01;1.20;99.90
14993;DHT22;7592;51.088;13.732;2023-03-03T02:47:02;1.20;99.90
14993;DHT22;7592;51.088;13.732;2023-03-03T02:51:54;1.30;99.90
14993;DHT22;7592;51.088;13.732;2023-03-03T02:56:48;1.20;99.90
14993;DHT22;7592;51.088;13.732;2023-03-03T03:01:41;1.10;99.90
14993;DHT22;7592;51.088;13.732;2023-03-03T03:06:37;1.20;99.90
14993;DHT22;7592;51.088;13.732;2023-03-03T03:11:30;1.20;99.90
14993;DHT22;7592;51.088;13.732;2023-03-03T03:16:22;1.30;99.90
14993;DHT22;7592;51.088;13.732;2023-03-03T03:21:14;1.30;99.90
14993;DHT22;7592;51.088;13.732;2023-03-03T03:26:07;1.30;99.90
14993;DHT22;7592;51.088;13.732;2023-03-03T03:31:00;1.30;99.90
14993;DHT22;7592;51.088;13.732;2023-03-03T03:35:52;1.30;99.90
14993;DHT22;7592;51.088;13.732;2023-03-03T03:40:46;1.30;99.90
14993;DHT22;7592;51.088;13.732;2023-03-03T03:45:40;1.30;99.90
14993;DHT22;7592;51.088;13.732;2023-03-03T03:50:33;1.30;99.90
14993;DHT22;7592;51.088;13.732;2023-03-03T03:55:25;1.20;99.90
14993;DHT22;7592;51.088;13.732;2023-03-03T04:00:19;1.20;99.90
14993;DHT22;7592;51.088;13.732;2023-03-03T04:05:19;1.20;99.90
14993;DHT22;7592;51.088;13.732;2023-03-03T04:10:14;1.20;99.90
14993;DHT22;7592;51.088;13.732;2023-03-03T04:15:08;1.30;99.90
14993;DHT22;7592;51.088;13.732;2023-03-03T04:20:04;1.20;99.90
14993;DHT22;7592;51.088;13.732;2023-03-03T04:24:57;1.20;99.90
14993;DHT22;7592;51.088;13.732;2023-03-03T04:29:50;1.20;99.90
14993;DHT22;7592;51.088;13.732;2023-03-03T04:34:43;1.20;99.90
14993;DHT22;7592;51.088;13.732;2023-03-03T04:39:41;1.30;99.90
14993;DHT22;7592;51.088;13.732;2023-03-03T04:44:33;1.30;99.90
14993;DHT22;7592;51.088;13.732;2023-03-03T04:49:26;1.20;99.90
14993;DHT22;7592;51.088;13.732;2023-03-03T04:54:18;1.10;99.90
14993;DHT22;7592;51.088;13.732;2023-03-03T04:59:10;1.10;99.90
14993;DHT22;7592;51.088;13.732;2023-03-03T05:04:03;1.10;99.90
14993;DHT22;7592;51.088;13.732;2023-03-03T05:08:55;1.00;99.90
14993;DHT22;7592;51.088;13.732;2023-03-03T05:13:47;1.10;99.90
14993;DHT22;7592;51.088;13.732;2023-03-03T05:18:39;1.10;99.90
14993;DHT22;7592;51.088;13.732;2023-03-03T05:23:32;1.10;99.90
14993;DHT22;7592;51.088;13.732;2023-03-03T05:28:24;1.20;99.90
14993;DHT22;7592;51.088;13.732;2023-03-03T05:33:16;1.30;99.90
14993;DHT22;7592;51.088;13.732;2023-03-03T05:38:09;1.30;99.90
14993;DHT22;7592;51.088;13.732;2023-03-03T05:43:01;1.30;99.90
14993;DHT22;7592;51.088;13.732;2023-03-03T05:47:53;1.30;99.90
14993;DHT22;7592;51.088;13.732;2023-03-03T05:52:50;1.20;99.90
14993;DHT22;7592;51.088;13.732;2023-03-03T05:57:42;1.30;99.90
14993;DHT22;7592;51.088;13.732;2023-03-03T06:02:34;1.30;99.90
14993;DHT22;7592;51.088;13.732;2023-03-03T06:07:27;1.30;99.90
14993;DHT22;7592;51.088;13.732;2023-03-03T06:12:19;1.40;99.90
14993;DHT22;7592;51.088;13.732;2023-03-03T06:17:11;1.50;99.90
14993;DHT22;7592;51.088;13.732;2023-03-03T06:22:03;1.50;99.90
14993;DHT22;7592;51.088;13.732;2023-03-03T06:26:56;1.60;99.90
14993;DHT22;7592;51.088;13.732;2023-03-03T06:31:48;1.60;99.90
14993;DHT22;7592;51.088;13.732;2023-03-03T06:36:41;1.70;99.90
14993;DHT22;7592;51.088;13.732;2023-03-03T06:41:33;1.70;99.90
14993;DHT22;7592;51.088;13.732;2023-03-03T06:46:25;1.60;99.90
14993;DHT22;7592;51.088;13.732;2023-03-03T06:51:26;1.70;99.90
14993;DHT22;7592;51.088;13.732;2023-03-03T06:56:22;1.80;99.90
14993;DHT22;7592;51.088;13.732;2023-03-03T07:01:16;1.80;99.90
14993;DHT22;7592;51.088;13.732;2023-03-03T07:06:23;1.80;99.90
14993;DHT22;7592;51.088;13.732;2023-03-03T07:11:20;1.70;99.90
14993;DHT22;7592;51.088;13.732;2023-03-03T07:16:13;1.70;99.90
14993;DHT22;7592;51.088;13.732;2023-03-03T07:21:21;1.70;99.90
14993;DHT22;7592;51.088;13.732;2023-03-03T07:26:17;1.90;99.90
14993;DHT22;7592;51.088;13.732;2023-03-03T07:31:27;1.90;99.90
14993;DHT22;7592;51.088;13.732;2023-03-03T07:36:27;2.00;99.90
14993;DHT22;7592;51.088;13.732;2023-03-03T07:41:20;2.00;99.90
14993;DHT22;7592;51.088;13.732;2023-03-03T07:51:24;2.30;99.90
14993;DHT22;7592;51.088;13.732;2023-03-03T07:56:29;2.40;99.90
14993;DHT22;7592;51.088;13.732;2023-03-03T08:01:39;2.50;99.90
14993;DHT22;7592;51.088;13.732;2023-03-03T08:06:41;2.60;99.90
14993;DHT22;7592;51.088;13.732;2023-03-03T08:16:40;2.70;99.90
14993;DHT22;7592;51.088;13.732;2023-03-03T08:21:33;2.80;99.90
14993;DHT22;7592;51.088;13.732;2023-03-03T08:26:26;2.90;99.90
14993;DHT22;7592;51.088;13.732;2023-03-03T08:31:19;3.00;99.90
14993;DHT22;7592;51.088;13.732;2023-03-03T08:36:30;3.10;99.90
14993;DHT22;7592;51.088;13.732;2023-03-03T08:41:25;3.10;99.90
14993;DHT22;7592;51.088;13.732;2023-03-03T08:46:17;3.20;99.90
14993;DHT22;7592;51.088;13.732;2023-03-03T08:51:09;3.20;99.90
14993;DHT22;7592;51.088;13.732;2023-03-03T08:56:01;3.20;99.90
14993;DHT22;7592;51.088;13.732;2023-03-03T09:00:53;3.30;99.90
14993;DHT22;7592;51.088;13.732;2023-03-03T09:05:45;3.30;99.90
14993;DHT22;7592;51.088;13.732;2023-03-03T09:10:38;3.20;99.90
14993;DHT22;7592;51.088;13.732;2023-03-03T09:15:33;3.20;99.90
14993;DHT22;7592;51.088;13.732;2023-03-03T09:20:37;3.30;99.90
14993;DHT22;7592;51.088;13.732;2023-03-03T09:25:33;3.20;99.90
14993;DHT22;7592;51.088;13.732;2023-03-03T09:30:39;3.40;99.90
14993;DHT22;7592;51.088;13.732;2023-03-03T09:35:34;3.50;99.90
14993;DHT22;7592;51.088;13.732;2023-03-03T09:40:50;3.50;99.90
14993;DHT22;7592;51.088;13.732;2023-03-03T09:56:12;3.20;99.90
14993;DHT22;7592;51.088;13.732;2023-03-03T10:06:19;3.30;99.90
14993;DHT22;7592;51.088;13.732;2023-03-03T10:11:22;3.40;99.90
14993;DHT22;7592;51.088;13.732;2023-03-03T10:21:49;3.30;99.90
14993;DHT22;7592;51.088;13.732;2023-03-03T10:26:54;3.30;99.90
14993;DHT22;7592;51.088;13.732;2023-03-03T10:32:41;3.20;99.90
14993;DHT22;7592;51.088;13.732;2023-03-03T10:48:54;3.40;99.90
14993;DHT22;7592;51.088;13.732;2023-03-03T11:14:44;3.90;99.90
14993;DHT22;7592;51.088;13.732;2023-03-03T11:30:31;3.80;99.90
14993;DHT22;7592;51.088;13.732;2023-03-03T11:35:33;3.90;99.90
14993;DHT22;7592;51.088;13.732;2023-03-03T11:40:47;4.10;99.90
14993;DHT22;7592;51.088;13.732;2023-03-03T11:45:46;4.00;99.90
14993;DHT22;7592;51.088;13.732;2023-03-03T11:55:48;4.10;99.90
14993;DHT22;7592;51.088;13.732;2023-03-03T12:06:29;4.30;99.90
14993;DHT22;7592;51.088;13.732;2023-03-03T12:11:37;4.30;99.90
14993;DHT22;7592;51.088;13.732;2023-03-03T12:32:14;4.90;99.90
14993;DHT22;7592;51.088;13.732;2023-03-03T12:47:26;4.90;99.90
14993;DHT22;7592;51.088;13.732;2023-03-03T13:03:26;5.10;99.90
14993;DHT22;7592;51.088;13.732;2023-03-03T13:08:46;5.00;99.90
14993;DHT22;7592;51.088;13.732;2023-03-03T13:13:59;4.90;99.90
14993;DHT22;7592;51.088;13.732;2023-03-03T13:28:57;4.50;99.90
14993;DHT22;7592;51.088;13.732;2023-03-03T13:33:55;4.40;99.90
14993;DHT22;7592;51.088;13.732;2023-03-03T13:38:51;4.60;99.90
14993;DHT22;7592;51.088;13.732;2023-03-03T13:49:06;4.80;99.90
14993;DHT22;7592;51.088;13.732;2023-03-03T14:19:47;4.90;99.90
14993;DHT22;7592;51.088;13.732;2023-03-03T14:25:08;4.90;99.90
14993;DHT22;7592;51.088;13.732;2023-03-03T14:35:18;5.00;99.90
14993;DHT22;7592;51.088;13.732;2023-03-03T14:40:33;4.80;99.90
14993;DHT22;7592;51.088;13.732;2023-03-03T14:45:41;4.70;99.90
14993;DHT22;7592;51.088;13.732;2023-03-03T14:50:37;4.70;99.90
14993;DHT22;7592;51.088;13.732;2023-03-03T14:55:32;4.70;99.90
14993;DHT22;7592;51.088;13.732;2023-03-03T15:00:30;4.60;99.90
14993;DHT22;7592;51.088;13.732;2023-03-03T15:05:28;4.50;99.90
14993;DHT22;7592;51.088;13.732;2023-03-03T15:15:28;4.50;99.90
14993;DHT22;7592;51.088;13.732;2023-03-03T15:41:15;4.10;99.90
14993;DHT22;7592;51.088;13.732;2023-03-03T15:46:27;4.10;99.90
14993;DHT22;7592;51.088;13.732;2023-03-03T15:51:32;4.00;99.90
14993;DHT22;7592;51.088;13.732;2023-03-03T15:56:49;3.70;99.90
14993;DHT22;7592;51.088;13.732;2023-03-03T16:02:36;3.60;99.90
14993;DHT22;7592;51.088;13.732;2023-03-03T16:18:04;3.50;99.90
14993;DHT22;7592;51.088;13.732;2023-03-03T16:28:22;3.50;99.90
14993;DHT22;7592;51.088;13.732;2023-03-03T16:33:42;3.50;99.90
14993;DHT22;7592;51.088;13.732;2023-03-03T16:38:42;3.30;99.90
14993;DHT22;7592;51.088;13.732;2023-03-03T16:49:08;3.20;99.90
14993;DHT22;7592;51.088;13.732;2023-03-03T16:54:07;3.10;99.90
14993;DHT22;7592;51.088;13.732;2023-03-03T17:04:38;3.00;99.90
14993;DHT22;7592;51.088;13.732;2023-03-03T17:19:50;3.00;99.90
14993;DHT22;7592;51.088;13.732;2023-03-03T17:24:59;2.90;99.90
14993;DHT22;7592;51.088;13.732;2023-03-03T17:45:20;2.90;99.90
14993;DHT22;7592;51.088;13.732;2023-03-03T17:50:19;2.90;99.90
14993;DHT22;7592;51.088;13.732;2023-03-03T18:11:26;3.00;99.90
14993;DHT22;7592;51.088;13.732;2023-03-03T18:21:50;3.00;99.90
14993;DHT22;7592;51.088;13.732;2023-03-03T18:26:44;3.00;99.90
14993;DHT22;7592;51.088;13.732;2023-03-03T18:47:16;3.10;99.90
14993;DHT22;7592;51.088;13.732;2023-03-03T18:57:18;3.10;99.90
14993;DHT22;7592;51.088;13.732;2023-03-03T19:07:29;3.10;99.90
14993;DHT22;7592;51.088;13.732;2023-03-03T19:12:46;3.00;99.90
14993;DHT22;7592;51.088;13.732;2023-03-03T19:22:41;3.00;99.90
14993;DHT22;7592;51.088;13.732;2023-03-03T19:33:06;3.00;99.90
14993;DHT22;7592;51.088;13.732;2023-03-03T19:48:35;3.10;99.90
14993;DHT22;7592;51.088;13.732;2023-03-03T19:53:33;3.10;99.90
14993;DHT22;7592;51.088;13.732;2023-03-03T19:58:32;3.10;99.90
14993;DHT22;7592;51.088;13.732;2023-03-03T20:14:11;3.10;99.90
14993;DHT22;7592;51.088;13.732;2023-03-03T20:19:14;3.10;99.90
14993;DHT22;7592;51.088;13.732;2023-03-03T20:55:16;3.20;99.90
14993;DHT22;7592;51.088;13.732;2023-03-03T21:05:13;3.20;99.90
14993;DHT22;7592;51.088;13.732;2023-03-03T21:10:16;3.20;99.90
14993;DHT22;7592;51.088;13.732;2023-03-03T21:15:28;3.20;99.90
14993;DHT22;7592;51.088;13.732;2023-03-03T21:20:32;3.20;99.90
14993;DHT22;7592;51.088;13.732;2023-03-03T21:30:33;3.30;99.90
14993;DHT22;7592;51.088;13.732;2023-03-03T21:35:25;3.30;99.90
14993;DHT22;7592;51.088;13.732;2023-03-03T21:40:26;3.30;99.90
14993;DHT22;7592;51.088;13.732;2023-03-03T21:45:18;3.20;99.90
14993;DHT22;7592;51.088;13.732;2023-03-03T21:50:15;3.30;99.90
14993;DHT22;7592;51.088;13.732;2023-03-03T21:55:08;3.30;99.90
14993;DHT22;7592;51.088;13.732;2023-03-03T22:00:01;3.20;99.90
14993;DHT22;7592;51.088;13.732;2023-03-03T22:04:58;3.20;99.90
14993;DHT22;7592;51.088;13.732;2023-03-03T22:09:50;3.20;99.90
14993;DHT22;7592;51.088;13.732;2023-03-03T22:14:43;3.20;99.90
14993;DHT22;7592;51.088;13.732;2023-03-03T22:19:35;3.30;99.90
14993;DHT22;7592;51.088;13.732;2023-03-03T22:24:29;3.30;99.90
14993;DHT22;7592;51.088;13.732;2023-03-03T22:29:21;3.30;99.90
14993;DHT22;7592;51.088;13.732;2023-03-03T22:34:14;3.30;99.90
14993;DHT22;7592;51.088;13.732;2023-03-03T22:39:06;3.30;99.90
14993;DHT22;7592;51.088;13.732;2023-03-03T22:43:58;3.30;99.90
14993;DHT22;7592;51.088;13.732;2023-03-03T22:48:50;3.30;99.90
14993;DHT22;7592;51.088;13.732;2023-03-03T22:53:42;3.30;99.90
14993;DHT22;7592;51.088;13.732;2023-03-03T22:58:34;3.30;99.90
14993;DHT22;7592;51.088;13.732;2023-03-03T23:03:26;3.30;99.90
14993;DHT22;7592;51.088;13.732;2023-03-03T23:08:19;3.30;99.90
14993;DHT22;7592;51.088;13.732;2023-03-03T23:13:12;3.30;99.90
14993;DHT22;7592;51.088;13.732;2023-03-03T23:18:04;3.20;99.90
14993;DHT22;7592;51.088;13.732;2023-03-03T23:22:57;3.20;99.90
14993;DHT22;7592;51.088;13.732;2023-03-03T23:27:49;3.20;99.90
14993;DHT22;7592;51.088;13.732;2023-03-03T23:32:42;3.30;99.90
14993;DHT22;7592;51.088;13.732;2023-03-03T23:37:36;3.30;99.90
14993;DHT22;7592;51.088;13.732;2023-03-03T23:42:28;3.30;99.90
14993;DHT22;7592;51.088;13.732;2023-03-03T23:47:22;3.20;99.90
14993;DHT22;7592;51.088;13.732;2023-03-03T23:52:14;3.30;99.90
14993;DHT22;7592;51.088;13.732;2023-03-03T23:57:07;3.20;99.90
